createdAt,value
2017-11-29T00:01:09.422Z,3.76
2017-11-29T00:03:36.882Z,3.60
2017-11-29T00:06:04.646Z,3.66
2017-11-29T00:08:32.765Z,3.54
2017-11-29T00:11:00.257Z,3.60
2017-11-29T00:13:28.258Z,3.61
2017-11-29T00:15:55.719Z,3.60
2017-11-29T00:18:23.179Z,3.58
2017-11-29T00:20:50.938Z,3.67
2017-11-29T00:23:18.402Z,3.76
2017-11-29T00:25:45.869Z,3.79
2017-11-29T00:28:13.500Z,3.75
2017-11-29T00:30:40.965Z,3.69
2017-11-29T00:33:08.417Z,3.59
2017-11-29T00:35:36.231Z,3.67
2017-11-29T00:38:03.691Z,3.79
2017-11-29T00:40:31.154Z,3.78
2017-11-29T00:42:58.994Z,3.86
2017-11-29T00:45:26.445Z,3.82
2017-11-29T00:47:54.301Z,3.81
2017-11-29T00:50:22.294Z,3.85
2017-11-29T00:52:49.763Z,3.81
2017-11-29T00:55:17.225Z,3.82
2017-11-29T00:57:45.301Z,3.88
2017-11-29T01:00:12.758Z,3.90
2017-11-29T01:02:40.216Z,4.02
2017-11-29T01:05:07.988Z,3.96
2017-11-29T01:07:35.445Z,3.95
2017-11-29T01:10:02.909Z,3.96
2017-11-29T01:12:30.665Z,3.97
2017-11-29T01:14:58.169Z,3.93
2017-11-29T01:17:25.638Z,3.93
2017-11-29T01:19:53.357Z,4.02
2017-11-29T01:22:20.818Z,4.07
2017-11-29T01:24:48.280Z,3.97
2017-11-29T01:27:16.043Z,4.03
2017-11-29T01:29:43.499Z,4.06
2017-11-29T01:32:10.956Z,4.05
2017-11-29T01:34:39.030Z,4.14
2017-11-29T01:37:06.507Z,4.05
2017-11-29T01:39:33.958Z,4.10
2017-11-29T01:42:01.690Z,4.13
2017-11-29T01:44:29.166Z,4.27
2017-11-29T01:46:56.624Z,4.28
2017-11-29T01:49:25.033Z,4.31
2017-11-29T01:51:52.496Z,4.31
2017-11-29T01:54:19.950Z,4.25
2017-11-29T01:56:48.018Z,4.29
2017-11-29T01:59:15.474Z,4.30
2017-11-29T02:01:42.926Z,4.28
2017-11-29T02:04:10.713Z,4.10
2017-11-29T02:06:41.010Z,4.03
2017-11-29T02:09:08.467Z,4.01
2017-11-29T02:11:36.186Z,3.92
2017-11-29T02:14:03.650Z,3.88
2017-11-29T02:16:31.109Z,3.90
2017-11-29T02:18:58.841Z,3.85
2017-11-29T02:21:26.314Z,3.75
2017-11-29T02:23:53.824Z,3.88
2017-11-29T02:26:21.885Z,3.70
2017-11-29T02:28:49.362Z,3.68
2017-11-29T02:31:17.140Z,3.66
2017-11-29T02:33:45.142Z,3.73
2017-11-29T02:36:12.602Z,3.72
2017-11-29T02:38:40.072Z,3.57
2017-11-29T02:41:20.118Z,3.63
2017-11-29T02:43:47.589Z,3.59
2017-11-29T02:46:15.059Z,3.54
2017-11-29T02:48:43.287Z,3.54
2017-11-29T02:51:11.271Z,3.66
2017-11-29T02:53:38.765Z,3.78
2017-11-29T02:56:06.490Z,3.65
2017-11-29T02:58:33.964Z,3.61
2017-11-29T03:01:01.419Z,3.64
2017-11-29T03:03:29.378Z,3.80
2017-11-29T03:05:56.847Z,3.70
2017-11-29T03:08:24.308Z,3.72
2017-11-29T03:10:52.335Z,3.78
2017-11-29T03:13:19.804Z,3.81
2017-11-29T03:15:47.262Z,3.59
2017-11-29T03:18:15.095Z,3.76
2017-11-29T03:20:42.564Z,3.76
2017-11-29T03:23:10.030Z,3.69
2017-11-29T03:25:38.054Z,3.83
2017-11-29T03:28:05.509Z,3.85
2017-11-29T03:30:32.985Z,3.87
2017-11-29T03:33:00.772Z,3.89
2017-11-29T03:35:28.230Z,3.93
2017-11-29T03:37:55.694Z,3.92
2017-11-29T03:40:24.017Z,3.87
2017-11-29T03:42:51.479Z,3.68
2017-11-29T03:45:18.939Z,3.79
2017-11-29T03:47:46.811Z,3.90
2017-11-29T03:50:14.268Z,3.78
2017-11-29T03:52:42.675Z,3.89
2017-11-29T03:55:10.408Z,3.83
2017-11-29T03:57:37.866Z,4.01
2017-11-29T04:00:05.333Z,3.94
2017-11-29T04:02:33.355Z,3.81
2017-11-29T04:05:00.815Z,4.11
2017-11-29T04:07:28.282Z,3.99
2017-11-29T04:09:56.042Z,4.14
2017-11-29T04:12:23.522Z,4.65
2017-11-29T04:14:50.981Z,4.03
2017-11-29T04:17:18.789Z,4.13
2017-11-29T04:19:46.255Z,4.63
2017-11-29T04:22:13.732Z,4.57
2017-11-29T04:24:41.724Z,4.20
2017-11-29T04:27:09.182Z,4.33
2017-11-29T04:29:36.638Z,4.25
2017-11-29T04:32:04.415Z,4.24
2017-11-29T04:34:31.882Z,4.87
2017-11-29T04:36:59.339Z,4.22
2017-11-29T04:39:27.409Z,4.30
2017-11-29T04:41:54.930Z,5.22
2017-11-29T04:44:22.383Z,4.16
2017-11-29T04:46:50.099Z,4.15
2017-11-29T04:49:17.563Z,4.19
2017-11-29T04:51:45.024Z,4.20
2017-11-29T04:54:15.243Z,4.26
2017-11-29T04:56:42.702Z,4.06
2017-11-29T04:59:10.169Z,4.15
2017-11-29T05:01:37.928Z,4.27
2017-11-29T05:04:05.409Z,3.98
2017-11-29T05:06:32.866Z,4.02
2017-11-29T05:09:00.509Z,4.16
2017-11-29T05:11:27.973Z,4.03
2017-11-29T05:13:55.442Z,3.97
2017-11-29T05:16:23.307Z,4.23
2017-11-29T05:18:50.765Z,3.94
2017-11-29T05:21:18.222Z,4.10
2017-11-29T05:23:46.290Z,3.94
2017-11-29T05:26:13.748Z,3.91
2017-11-29T05:28:41.208Z,3.84
2017-11-29T05:31:09.294Z,3.96
2017-11-29T05:33:36.753Z,3.93
2017-11-29T05:36:04.220Z,4.11
2017-11-29T05:38:31.975Z,4.07
2017-11-29T05:40:59.441Z,3.85
2017-11-29T05:43:26.906Z,3.87
2017-11-29T05:45:54.667Z,4.17
2017-11-29T05:48:22.136Z,4.25
2017-11-29T05:50:49.608Z,4.17
2017-11-29T05:53:17.353Z,4.03
2017-11-29T05:55:46.355Z,3.98
2017-11-29T05:58:13.813Z,4.25
2017-11-29T06:00:41.699Z,4.22
2017-11-29T06:03:09.158Z,4.22
2017-11-29T06:05:36.626Z,4.22
2017-11-29T06:08:04.564Z,4.19
2017-11-29T06:10:32.027Z,4.04
2017-11-29T06:12:59.489Z,4.02
2017-11-29T06:15:27.567Z,4.15
2017-11-29T06:17:55.026Z,4.12
2017-11-29T06:20:22.486Z,4.00
2017-11-29T06:22:50.238Z,3.89
2017-11-29T06:25:17.693Z,3.96
2017-11-29T06:27:45.163Z,3.88
2017-11-29T06:30:12.934Z,4.04
2017-11-29T06:32:40.391Z,4.09
2017-11-29T06:35:07.853Z,4.19
2017-11-29T06:37:35.992Z,3.95
2017-11-29T06:40:03.464Z,3.98
2017-11-29T06:42:30.927Z,4.11
2017-11-29T06:44:58.743Z,3.79
2017-11-29T06:47:26.208Z,3.95
2017-11-29T06:49:53.661Z,3.93
2017-11-29T06:52:21.579Z,3.89
2017-11-29T06:54:49.030Z,3.77
2017-11-29T06:57:16.920Z,3.82
2017-11-29T07:06:28.601Z,4.85
2017-11-29T07:08:56.069Z,4.16
2017-11-29T07:11:23.529Z,4.10
2017-11-29T07:13:51.265Z,3.96
2017-11-29T07:16:18.725Z,3.73
2017-11-29T07:18:46.196Z,4.19
2017-11-29T07:21:13.962Z,4.08
2017-11-29T07:23:41.451Z,4.07
2017-11-29T07:26:08.909Z,4.25
2017-11-29T07:28:36.649Z,4.19
2017-11-29T07:31:04.132Z,4.31
2017-11-29T07:33:31.609Z,4.43
2017-11-29T07:35:59.642Z,4.22
2017-11-29T07:38:27.102Z,4.45
2017-11-29T07:40:54.559Z,4.29
2017-11-29T07:43:22.320Z,4.52
2017-11-29T07:45:49.786Z,4.53
2017-11-29T07:48:17.251Z,4.13
2017-11-29T07:50:45.021Z,4.33
2017-11-29T07:53:12.488Z,4.38
2017-11-29T07:55:39.972Z,4.15
2017-11-29T07:58:08.319Z,4.14
2017-11-29T08:00:35.783Z,4.60
2017-11-29T08:03:03.243Z,4.62
2017-11-29T08:05:30.999Z,4.64
2017-11-29T08:07:58.467Z,4.65
2017-11-29T08:10:25.947Z,4.55
2017-11-29T08:12:53.691Z,4.32
2017-11-29T08:15:21.161Z,4.75
2017-11-29T08:17:48.634Z,4.63
2017-11-29T08:20:16.995Z,4.70
2017-11-29T08:22:44.459Z,4.78
2017-11-29T08:25:11.918Z,4.69
2017-11-29T08:27:39.586Z,4.61
2017-11-29T08:30:07.047Z,4.68
2017-11-29T08:32:34.508Z,4.67
2017-11-29T08:35:02.362Z,4.61
2017-11-29T08:37:29.831Z,4.91
2017-11-29T08:39:57.305Z,4.66
2017-11-29T08:42:25.073Z,4.90
2017-11-29T08:44:52.528Z,4.84
2017-11-29T08:47:20.003Z,4.94
2017-11-29T08:49:47.731Z,5.32
2017-11-29T08:52:15.195Z,5.11
2017-11-29T08:54:42.656Z,4.94
2017-11-29T08:57:10.423Z,4.76
2017-11-29T08:59:38.285Z,4.86
2017-11-29T09:02:05.744Z,5.35
2017-11-29T09:04:33.580Z,5.18
2017-11-29T09:07:01.038Z,5.23
2017-11-29T09:09:28.494Z,5.55
2017-11-29T09:11:56.182Z,5.34
2017-11-29T09:14:23.647Z,5.66
2017-11-29T09:16:51.106Z,5.81
2017-11-29T09:19:19.099Z,5.86
2017-11-29T09:21:46.571Z,6.01
2017-11-29T09:24:14.046Z,5.99
2017-11-29T09:26:41.783Z,5.86
2017-11-29T09:29:09.249Z,5.85
2017-11-29T09:31:36.714Z,5.86
2017-11-29T09:34:04.479Z,6.17
2017-11-29T09:36:31.941Z,6.16
2017-11-29T09:38:59.404Z,6.16
2017-11-29T09:41:27.158Z,6.06
2017-11-29T09:43:54.614Z,5.89
2017-11-29T09:46:22.075Z,5.73
2017-11-29T09:48:49.794Z,5.48
2017-11-29T09:51:17.257Z,5.70
2017-11-29T09:53:44.843Z,5.99
2017-11-29T09:56:12.562Z,5.91
2017-11-29T09:58:40.367Z,5.96
2017-11-29T10:01:08.450Z,5.83
2017-11-29T10:03:36.142Z,5.77
2017-11-29T10:06:03.601Z,6.06
2017-11-29T10:08:31.138Z,6.18
2017-11-29T10:10:59.134Z,6.44
2017-11-29T10:13:26.607Z,6.36
2017-11-29T10:15:54.443Z,6.65
2017-11-29T10:18:22.125Z,6.31
2017-11-29T10:20:49.607Z,6.43
2017-11-29T10:23:17.077Z,6.43
2017-11-29T10:25:44.818Z,6.68
2017-11-29T10:28:12.284Z,6.88
2017-11-29T10:30:39.746Z,6.34
2017-11-29T10:33:07.505Z,6.76
2017-11-29T10:35:35.038Z,6.37
2017-11-29T10:38:02.514Z,6.80
2017-11-29T10:40:30.527Z,6.34
2017-11-29T10:42:57.984Z,6.47
2017-11-29T10:45:25.450Z,6.47
2017-11-29T10:47:53.376Z,6.62
2017-11-29T10:50:21.030Z,6.58
2017-11-29T10:52:48.491Z,6.63
2017-11-29T10:55:16.511Z,6.36
2017-11-29T10:57:44.336Z,6.69
2017-11-29T11:00:11.799Z,6.13
2017-11-29T11:02:40.405Z,6.27
2017-11-29T11:05:07.858Z,6.38
2017-11-29T11:07:35.314Z,6.26
2017-11-29T11:10:03.109Z,6.26
2017-11-29T11:12:30.566Z,5.98
2017-11-29T11:14:58.023Z,6.52
2017-11-29T11:17:25.776Z,6.55
2017-11-29T11:19:53.241Z,6.69
2017-11-29T11:22:20.715Z,6.89
2017-11-29T11:24:48.469Z,6.89
2017-11-29T11:27:15.931Z,6.91
2017-11-29T11:29:43.396Z,6.82
2017-11-29T11:32:11.062Z,6.37
2017-11-29T11:34:38.534Z,6.68
2017-11-29T11:37:05.986Z,6.87
2017-11-29T11:39:33.837Z,6.68
2017-11-29T11:42:01.324Z,6.61
2017-11-29T11:44:29.147Z,6.51
2017-11-29T11:46:57.143Z,7.02
2017-11-29T11:49:24.684Z,7.29
2017-11-29T11:51:52.149Z,7.21
2017-11-29T11:54:20.140Z,7.13
2017-11-29T11:56:47.610Z,7.05
2017-11-29T11:59:15.135Z,7.37
2017-11-29T12:01:42.861Z,7.52
2017-11-29T12:04:10.979Z,7.61
2017-11-29T12:06:38.456Z,6.94
2017-11-29T12:09:06.423Z,7.20
2017-11-29T12:11:33.883Z,7.53
2017-11-29T12:14:01.338Z,7.65
2017-11-29T12:16:29.112Z,7.83
2017-11-29T12:18:56.563Z,7.61
2017-11-29T12:21:24.016Z,8.01
2017-11-29T12:23:52.297Z,7.91
2017-11-29T12:26:19.755Z,8.04
2017-11-29T12:28:47.216Z,8.71
2017-11-29T12:31:15.108Z,8.16
2017-11-29T12:33:42.573Z,7.87
2017-11-29T12:36:10.094Z,7.83
2017-11-29T12:38:37.806Z,7.04
2017-11-29T12:41:05.275Z,7.03
2017-11-29T12:43:32.739Z,6.67
2017-11-29T12:46:00.779Z,7.09
2017-11-29T12:48:39.887Z,7.27
2017-11-29T12:51:19.679Z,6.86
2017-11-29T12:53:47.144Z,6.54
2017-11-29T12:56:14.607Z,6.44
2017-11-29T12:58:42.658Z,6.62
2017-11-29T13:01:10.187Z,6.80
2017-11-29T13:03:37.646Z,6.61
2017-11-29T13:06:06.286Z,6.88
2017-11-29T13:08:33.755Z,6.88
2017-11-29T13:11:01.222Z,6.63
2017-11-29T13:13:29.271Z,6.66
2017-11-29T13:15:56.734Z,6.53
2017-11-29T13:18:24.206Z,6.54
2017-11-29T13:20:52.262Z,6.77
2017-11-29T13:23:19.758Z,6.65
2017-11-29T13:25:47.224Z,7.26
2017-11-29T13:28:14.941Z,7.45
2017-11-29T13:30:42.392Z,7.78
2017-11-29T13:33:09.884Z,6.96
2017-11-29T13:35:37.640Z,7.02
2017-11-29T13:38:05.095Z,6.98
2017-11-29T13:40:32.549Z,6.95
2017-11-29T13:43:00.324Z,7.04
2017-11-29T13:45:27.794Z,6.98
2017-11-29T13:47:55.250Z,7.06
2017-11-29T13:50:23.041Z,6.63
2017-11-29T13:52:50.511Z,6.47
2017-11-29T13:55:17.979Z,6.75
2017-11-29T13:57:45.694Z,6.79
2017-11-29T14:00:13.151Z,7.09
2017-11-29T14:02:40.611Z,7.14
2017-11-29T14:05:08.389Z,7.09
2017-11-29T14:07:36.284Z,6.59
2017-11-29T14:10:03.742Z,6.79
2017-11-29T14:12:31.474Z,6.24
2017-11-29T14:14:58.928Z,6.54
2017-11-29T14:17:26.378Z,6.49
2017-11-29T14:19:54.803Z,6.67
2017-11-29T14:22:22.264Z,6.61
2017-11-29T14:24:49.722Z,6.31
2017-11-29T14:27:17.677Z,6.14
2017-11-29T14:29:45.147Z,6.45
2017-11-29T14:32:12.606Z,6.44
2017-11-29T14:34:40.391Z,6.44
2017-11-29T14:37:07.862Z,6.28
2017-11-29T14:39:35.533Z,6.17
2017-11-29T14:42:03.667Z,6.20
2017-11-29T14:44:31.131Z,6.21
2017-11-29T14:46:58.587Z,6.27
2017-11-29T14:49:26.368Z,6.28
2017-11-29T14:51:53.835Z,6.17
2017-11-29T14:54:21.294Z,6.17
2017-11-29T14:56:49.351Z,6.05
2017-11-29T14:59:16.807Z,6.19
2017-11-29T15:01:44.267Z,6.23
2017-11-29T15:04:12.035Z,6.22
2017-11-29T15:06:39.496Z,6.04
2017-11-29T15:09:07.643Z,5.79
2017-11-29T15:11:35.327Z,5.94
2017-11-29T15:14:02.785Z,5.87
2017-11-29T15:16:32.554Z,5.96
2017-11-29T15:19:00.759Z,6.01
2017-11-29T15:21:28.226Z,6.00
2017-11-29T15:23:55.686Z,6.01
2017-11-29T15:26:23.691Z,5.82
2017-11-29T15:28:51.159Z,5.66
2017-11-29T15:31:18.616Z,5.60
2017-11-29T15:33:46.471Z,5.81
2017-11-29T15:36:13.934Z,5.82
2017-11-29T15:38:41.394Z,5.82
2017-11-29T15:41:09.146Z,5.83
2017-11-29T15:43:36.613Z,5.81
2017-11-29T15:46:04.078Z,5.74
2017-11-29T15:48:31.835Z,5.71
2017-11-29T15:50:59.299Z,5.74
2017-11-29T15:53:26.761Z,5.70
2017-11-29T15:55:54.525Z,6.23
2017-11-29T15:58:21.989Z,6.03
2017-11-29T16:00:49.466Z,5.71
2017-11-29T16:03:17.544Z,5.48
2017-11-29T16:05:45.005Z,5.51
2017-11-29T16:08:12.470Z,6.29
2017-11-29T16:10:42.670Z,5.90
2017-11-29T16:13:10.137Z,5.51
2017-11-29T16:15:37.611Z,5.49
2017-11-29T16:18:05.664Z,5.62
2017-11-29T16:20:33.130Z,5.41
2017-11-29T16:23:00.595Z,5.59
2017-11-29T16:25:28.345Z,5.52
2017-11-29T16:27:55.819Z,5.57
2017-11-29T16:30:23.280Z,5.59
2017-11-29T16:32:51.039Z,5.52
2017-11-29T16:35:18.496Z,5.54
2017-11-29T16:37:45.963Z,5.37
2017-11-29T16:40:13.595Z,5.39
2017-11-29T16:42:41.052Z,5.31
2017-11-29T16:45:08.518Z,5.29
2017-11-29T16:47:36.760Z,5.35
2017-11-29T16:50:04.222Z,5.23
2017-11-29T16:52:31.683Z,5.24
2017-11-29T16:54:59.402Z,5.41
2017-11-29T16:57:26.885Z,5.45
2017-11-29T16:59:54.346Z,5.52
2017-11-29T17:02:22.083Z,5.52
2017-11-29T17:04:49.557Z,5.51
2017-11-29T17:07:17.030Z,5.41
2017-11-29T17:09:45.084Z,5.49
2017-11-29T17:12:13.238Z,5.59
2017-11-29T17:14:40.704Z,5.49
2017-11-29T17:17:08.388Z,5.59
2017-11-29T17:19:35.863Z,5.58
2017-11-29T17:22:03.334Z,5.50
2017-11-29T17:24:32.202Z,5.38
2017-11-29T17:26:59.741Z,5.53
2017-11-29T17:29:27.205Z,5.47
2017-11-29T17:31:54.990Z,5.36
2017-11-29T17:34:22.623Z,5.26
2017-11-29T17:36:50.095Z,5.17
2017-11-29T17:39:17.979Z,5.32
2017-11-29T17:41:45.451Z,5.12
2017-11-29T17:44:12.915Z,5.26
2017-11-29T17:46:40.676Z,5.17
2017-11-29T17:49:08.142Z,5.01
2017-11-29T17:51:35.603Z,5.14
2017-11-29T17:54:03.362Z,5.11
2017-11-29T17:56:30.821Z,5.23
2017-11-29T17:58:58.286Z,5.04
2017-11-29T18:01:26.355Z,4.90
2017-11-29T18:03:53.815Z,5.11
2017-11-29T18:06:21.276Z,5.12
2017-11-29T18:08:49.034Z,4.76
2017-11-29T18:11:16.510Z,5.03
2017-11-29T18:13:44.727Z,4.73
2017-11-29T18:16:12.343Z,5.05
2017-11-29T18:18:39.804Z,4.99
2017-11-29T18:21:07.278Z,4.98
2017-11-29T18:23:35.027Z,4.91
2017-11-29T18:26:02.479Z,4.98
2017-11-29T18:28:29.943Z,4.94
2017-11-29T18:30:57.588Z,4.82
2017-11-29T18:33:25.045Z,4.96
2017-11-29T18:35:52.500Z,4.74
2017-11-29T18:38:20.412Z,4.88
2017-11-29T18:40:47.868Z,4.82
2017-11-29T18:43:15.367Z,4.77
2017-11-29T18:45:43.399Z,4.65
2017-11-29T18:48:10.878Z,4.89
2017-11-29T18:50:38.340Z,4.82
2017-11-29T18:53:06.017Z,4.83
2017-11-29T18:55:33.491Z,4.66
2017-11-29T18:58:00.948Z,4.85
2017-11-29T19:00:28.774Z,4.95
2017-11-29T19:02:56.247Z,4.78
2017-11-29T19:05:23.715Z,4.88
2017-11-29T19:07:51.660Z,4.67
2017-11-29T19:10:19.180Z,4.83
2017-11-29T19:12:46.731Z,4.65
2017-11-29T19:15:15.385Z,4.72
2017-11-29T19:17:42.843Z,4.77
2017-11-29T19:20:10.303Z,4.54
2017-11-29T19:22:38.131Z,4.63
2017-11-29T19:25:05.615Z,4.57
2017-11-29T19:27:33.094Z,4.85
2017-11-29T19:30:00.756Z,4.82
2017-11-29T19:32:28.226Z,4.55
2017-11-29T19:34:55.722Z,4.60
2017-11-29T19:37:23.814Z,4.64
2017-11-29T19:39:51.480Z,4.63
2017-11-29T19:42:18.978Z,4.31
2017-11-29T19:44:46.731Z,4.40
2017-11-29T19:47:14.195Z,4.60
2017-11-29T19:49:41.658Z,4.56
2017-11-29T19:52:09.727Z,4.58
2017-11-29T19:54:37.477Z,4.60
2017-11-29T19:57:04.979Z,4.65
2017-11-29T19:59:32.738Z,4.49
2017-11-29T20:02:00.237Z,4.51
2017-11-29T20:04:27.971Z,4.33
2017-11-29T20:06:56.014Z,4.52
2017-11-29T20:09:23.533Z,4.42
2017-11-29T20:11:51.029Z,4.42
2017-11-29T20:14:18.828Z,4.48
2017-11-29T20:16:46.730Z,4.43
2017-11-29T20:19:14.212Z,4.27
2017-11-29T20:21:42.033Z,4.03
2017-11-29T20:24:09.539Z,4.39
2017-11-29T20:26:36.985Z,4.49
2017-11-29T20:29:04.750Z,4.61
2017-11-29T20:31:32.217Z,5.72
2017-11-29T20:33:59.703Z,4.51
2017-11-29T20:36:27.602Z,4.49
2017-11-29T20:38:55.079Z,4.34
2017-11-29T20:41:23.014Z,4.12
2017-11-29T20:43:50.999Z,4.28
2017-11-29T20:46:18.502Z,4.25
2017-11-29T20:48:45.966Z,4.26
2017-11-29T20:51:13.716Z,4.19
2017-11-29T20:53:41.188Z,4.24
2017-11-29T20:56:08.650Z,4.30
2017-11-29T20:58:36.680Z,4.36
2017-11-29T21:01:04.149Z,4.34
2017-11-29T21:03:31.640Z,4.30
2017-11-29T21:05:59.366Z,4.13
2017-11-29T21:08:26.836Z,4.15
2017-11-29T21:10:54.296Z,4.07
2017-11-29T21:13:22.034Z,4.11
2017-11-29T21:15:49.795Z,4.12
2017-11-29T21:18:17.878Z,4.19
2017-11-29T21:20:45.961Z,4.16
2017-11-29T21:23:13.455Z,4.04
2017-11-29T21:25:40.934Z,4.08
2017-11-29T21:28:08.659Z,4.19
2017-11-29T21:30:36.117Z,4.04
2017-11-29T21:33:03.874Z,3.90
2017-11-29T21:35:31.689Z,4.07
2017-11-29T21:37:59.161Z,3.97
2017-11-29T21:40:26.632Z,4.10
2017-11-29T21:42:54.514Z,5.33
2017-11-29T21:45:21.980Z,4.39
2017-11-29T21:47:49.460Z,4.19
2017-11-29T21:50:17.324Z,4.16
2017-11-29T21:52:44.779Z,4.23
2017-11-29T21:55:12.239Z,4.15
2017-11-29T21:57:40.027Z,4.01
2017-11-29T22:00:07.493Z,4.07
2017-11-29T22:02:34.951Z,3.82
2017-11-29T22:05:02.712Z,4.04
2017-11-29T22:07:30.171Z,4.05
2017-11-29T22:09:57.632Z,4.07
2017-11-29T22:12:25.386Z,3.97
2017-11-29T22:14:52.854Z,3.95
2017-11-29T22:17:20.356Z,3.90
2017-11-29T22:19:49.002Z,3.92
2017-11-29T22:22:16.466Z,3.78
2017-11-29T22:24:43.926Z,3.79
2017-11-29T22:27:14.764Z,3.95
2017-11-29T22:29:42.230Z,3.68
2017-11-29T22:32:09.695Z,3.83
2017-11-29T22:34:37.437Z,3.83
2017-11-29T22:37:04.891Z,3.67
2017-11-29T22:39:32.706Z,3.71
2017-11-29T22:42:00.443Z,3.76
2017-11-29T22:44:27.907Z,3.72
2017-11-29T22:46:55.366Z,3.68
2017-11-29T22:49:23.130Z,3.71
2017-11-29T22:51:50.591Z,3.65
2017-11-29T22:54:18.054Z,3.67
2017-11-29T22:56:46.130Z,3.74
2017-11-29T22:59:13.590Z,3.83
2017-11-29T23:01:41.048Z,3.71
2017-11-29T23:04:08.809Z,3.63
2017-11-29T23:06:36.274Z,3.71
2017-11-29T23:09:03.730Z,3.58
2017-11-29T23:11:31.511Z,3.69
2017-11-29T23:13:58.970Z,3.68
2017-11-29T23:16:26.427Z,3.59
2017-11-29T23:18:54.173Z,3.57
2017-11-29T23:21:22.163Z,3.59
2017-11-29T23:23:49.626Z,3.53
2017-11-29T23:26:17.463Z,3.55
2017-11-29T23:28:44.920Z,3.65
2017-11-29T23:31:12.389Z,3.63
2017-11-29T23:33:40.115Z,3.75
2017-11-29T23:36:07.574Z,3.55
2017-11-29T23:38:35.034Z,3.49
2017-11-29T23:41:02.862Z,3.52
2017-11-29T23:43:30.319Z,3.56
2017-11-29T23:45:57.784Z,3.54
2017-11-29T23:48:25.543Z,3.49
2017-11-29T23:50:53.004Z,3.45
2017-11-29T23:53:20.465Z,3.51
2017-11-29T23:55:48.227Z,3.43
2017-11-29T23:58:15.683Z,3.47
